Time;durP1;ratioP1;P1;durP2;ratioP2;P2;SDS_P1;SDS_P2;PMS_P1;PMS_P2;Temp;Humidity;BMP_temperature;BMP_pressure;BME280_temperature;BME280_humidity;BME280_pressure;Samples;Min_cycle;Max_cycle;Signal;HPM_P1;HPM_P2
2023/08/15 04:00:26;;;;;;;1.47;0.40;;;23.30;99.90;;;;;;5941838;23;21153;-73
2023/08/15 04:02:54;;;;;;;0.60;0.30;;;23.30;99.90;;;;;;4950731;29;20552;-72
2023/08/15 04:05:23;;;;;;;0.60;0.20;;;23.10;99.90;;;;;;4948325;29;20867;-72
2023/08/15 04:07:51;;;;;;;0.60;0.10;;;23.10;99.90;;;;;;4942337;29;20555;-72
2023/08/15 04:10:19;;;;;;;0.60;0.10;;;23.10;99.90;;;;;;4953227;29;20920;-73
2023/08/15 04:12:53;;;;;;;0.60;0.10;;;23.10;99.90;;;;;;4934926;29;20454;-73
2023/08/15 04:15:21;;;;;;;0.60;0.10;;;;;;;;;;4934832;29;20456;-72
2023/08/15 04:17:51;;;;;;;0.60;0.10;;;23.00;99.90;;;;;;4934681;29;20817;-73
2023/08/15 04:20:19;;;;;;;0.60;0.10;;;23.00;99.90;;;;;;4934050;29;20479;-72
2023/08/15 04:22:46;;;;;;;0.60;0.20;;;23.00;99.90;;;;;;4934876;29;20457;-72
2023/08/15 04:25:14;;;;;;;0.60;0.10;;;23.00;99.90;;;;;;4934494;29;20454;-73
2023/08/15 04:27:42;;;;;;;0.60;0.10;;;23.00;99.90;;;;;;4934065;29;20451;-73
2023/08/15 04:30:11;;;;;;;0.60;0.10;;;23.10;99.90;;;;;;4934288;29;20515;-72
2023/08/15 04:32:39;;;;;;;0.60;0.20;;;;;;;;;;4934468;29;20865;-72
2023/08/15 04:35:09;;;;;;;0.60;0.10;;;23.10;99.90;;;;;;4933909;29;20494;-73
2023/08/15 04:37:37;;;;;;;0.70;0.20;;;;;;;;;;4934204;29;20448;-73
2023/08/15 04:40:06;;;;;;;0.60;0.20;;;22.80;99.90;;;;;;4934303;29;20570;-73
2023/08/15 04:42:34;;;;;;;0.60;0.20;;;22.90;99.90;;;;;;4934103;29;20477;-73
2023/08/15 04:45:02;;;;;;;0.60;0.20;;;22.70;1.00;;;;;;4971092;28;20461;-73
2023/08/15 04:47:30;;;;;;;0.60;0.10;;;22.70;1.00;;;;;;4972432;28;20449;-72
2023/08/15 04:49:58;;;;;;;3.10;1.13;;;22.70;1.00;;;;;;4972270;28;20473;-74
2023/08/15 04:52:27;;;;;;;0.60;0.20;;;22.60;1.00;;;;;;4972656;28;20620;-72
2023/08/15 04:54:55;;;;;;;0.60;0.10;;;22.60;1.00;;;;;;4972327;28;20538;-72
2023/08/15 04:57:23;;;;;;;0.70;0.40;;;22.70;1.00;;;;;;4972489;28;21038;-73
2023/08/15 04:59:51;;;;;;;0.60;0.13;;;22.70;1.00;;;;;;4972461;28;20673;-73
2023/08/15 05:02:19;;;;;;;0.60;0.20;;;22.70;99.90;;;;;;4972197;28;20543;-72
2023/08/15 05:04:46;;;;;;;0.60;0.10;;;22.80;99.90;;;;;;4972239;28;20465;-73
2023/08/15 05:07:14;;;;;;;0.60;0.20;;;22.80;99.90;;;;;;4973223;28;20875;-73
2023/08/15 05:09:44;;;;;;;0.60;0.10;;;22.80;99.90;;;;;;4972988;28;20438;-73
2023/08/15 05:12:12;;;;;;;0.60;0.10;;;22.80;99.90;;;;;;4972603;28;20527;-74
2023/08/15 05:14:40;;;;;;;0.60;0.10;;;;;;;;;;4972508;28;20484;-73
2023/08/15 05:17:08;;;;;;;0.60;0.10;;;23.00;99.90;;;;;;4972318;28;20544;-74
2023/08/15 05:19:36;;;;;;;0.60;0.10;;;;;;;;;;4972693;28;20520;-74
2023/08/15 05:22:05;;;;;;;0.60;0.10;;;;;;;;;;4972550;28;20500;-73
2023/08/15 05:24:33;;;;;;;0.60;0.10;;;22.90;99.90;;;;;;4971913;28;20467;-73
2023/08/15 05:27:02;;;;;;;0.60;0.10;;;22.80;99.90;;;;;;4971699;28;20476;-73
2023/08/15 05:29:30;;;;;;;0.60;0.10;;;22.80;99.90;;;;;;4971899;28;20512;-73
2023/08/15 05:31:58;;;;;;;0.60;0.10;;;22.80;99.90;;;;;;4972185;28;20548;-73
2023/08/15 05:34:26;;;;;;;0.60;0.10;;;;;;;;;;4972367;28;20527;-72
2023/08/15 05:36:54;;;;;;;0.60;0.13;;;22.90;99.90;;;;;;4972068;28;20458;-73
2023/08/15 05:39:21;;;;;;;0.60;0.20;;;22.80;99.90;;;;;;4972229;28;20443;-74
2023/08/15 05:41:49;;;;;;;0.60;0.20;;;22.80;99.90;;;;;;4971978;28;20493;-73
2023/08/15 05:44:19;;;;;;;0.60;0.20;;;22.80;99.90;;;;;;4962470;28;20459;-73
2023/08/15 05:46:46;;;;;;;0.60;0.10;;;22.70;99.90;;;;;;4957008;29;20544;-73
2023/08/15 05:49:14;;;;;;;0.60;0.10;;;22.60;99.90;;;;;;4956676;29;20445;-72
2023/08/15 05:51:42;;;;;;;0.60;0.13;;;22.70;99.90;;;;;;4957277;29;20558;-72
2023/08/15 05:54:10;;;;;;;0.60;0.10;;;22.70;99.90;;;;;;4958926;29;20548;-72
2023/08/15 05:56:38;;;;;;;0.60;0.20;;;22.70;99.90;;;;;;4958616;29;20799;-73
2023/08/15 05:59:06;;;;;;;0.60;0.10;;;22.60;99.90;;;;;;4957401;29;20453;-75
2023/08/15 06:01:35;;;;;;;0.60;0.10;;;22.60;99.90;;;;;;4956214;29;20494;-73
2023/08/15 06:04:04;;;;;;;0.60;0.10;;;22.60;99.90;;;;;;4956089;29;20493;-73
2023/08/15 06:06:32;;;;;;;0.60;0.10;;;22.80;99.90;;;;;;4956085;29;20549;-73
2023/08/15 06:09:00;;;;;;;0.60;0.17;;;;;;;;;;4955891;29;20445;-73
2023/08/15 06:11:28;;;;;;;0.60;0.10;;;22.90;99.90;;;;;;4956059;29;20476;-73
2023/08/15 06:13:56;;;;;;;0.60;0.20;;;22.90;99.90;;;;;;4955661;29;20446;-72
2023/08/15 06:16:24;;;;;;;0.60;0.20;;;22.90;99.90;;;;;;4955754;29;20450;-73
2023/08/15 06:18:53;;;;;;;0.60;0.20;;;22.90;99.90;;;;;;4955869;29;20461;-73
2023/08/15 06:21:21;;;;;;;0.60;0.30;;;22.90;1.00;;;;;;4955159;29;20494;-73
2023/08/15 06:23:49;;;;;;;0.60;0.10;;;22.90;1.00;;;;;;4955299;29;20599;-73
2023/08/15 06:26:17;;;;;;;0.60;0.10;;;23.00;1.00;;;;;;4955500;29;20449;-73
2023/08/15 06:28:45;;;;;;;0.60;0.10;;;23.00;1.00;;;;;;4955504;29;20461;-72
2023/08/15 06:31:13;;;;;;;0.60;0.10;;;23.00;1.00;;;;;;4955151;29;20497;-73
2023/08/15 06:33:40;;;;;;;0.60;0.10;;;23.10;1.00;;;;;;4955337;29;20457;-73
2023/08/15 06:36:10;;;;;;;0.60;0.10;;;23.10;1.00;;;;;;4955148;29;20469;-74
2023/08/15 06:38:38;;;;;;;1.57;0.87;;;23.10;99.90;;;;;;4955400;29;20506;-72
2023/08/15 06:41:06;;;;;;;0.60;0.10;;;23.00;1.00;;;;;;4955471;29;20905;-73
2023/08/15 06:43:34;;;;;;;0.60;0.20;;;23.00;1.00;;;;;;4962041;28;20452;-73
2023/08/15 06:46:02;;;;;;;1.17;0.43;;;;;;;;;;4975191;28;20533;-74
2023/08/15 06:48:30;;;;;;;0.60;0.13;;;22.90;1.00;;;;;;4975667;28;20449;-73
2023/08/15 06:50:58;;;;;;;0.73;0.50;;;22.90;1.00;;;;;;4975280;28;20830;-74
2023/08/15 06:53:27;;;;;;;0.60;0.10;;;23.00;1.00;;;;;;4975193;28;20445;-73
2023/08/15 06:55:55;;;;;;;1.93;1.60;;;23.10;1.00;;;;;;4975141;28;20540;-73
2023/08/15 06:58:23;;;;;;;0.60;0.20;;;;;;;;;;4975053;28;20449;-74
2023/08/15 07:00:51;;;;;;;0.60;0.10;;;;;;;;;;4974127;28;20612;-73
2023/08/15 07:03:20;;;;;;;0.60;0.10;;;23.20;1.00;;;;;;4974175;28;20477;-73
2023/08/15 07:05:49;;;;;;;0.90;0.53;;;23.30;1.00;;;;;;4973916;28;20514;-75
2023/08/15 07:08:17;;;;;;;0.60;0.10;;;23.30;1.00;;;;;;4974148;28;20536;-73
2023/08/15 07:10:46;;;;;;;0.60;0.10;;;23.30;1.00;;;;;;4973496;28;20473;-72
2023/08/15 07:13:14;;;;;;;0.60;0.10;;;23.40;1.00;;;;;;4973525;28;20531;-74
2023/08/15 07:15:42;;;;;;;0.60;0.10;;;23.40;1.00;;;;;;4974028;28;20539;-73
2023/08/15 07:18:10;;;;;;;0.60;0.10;;;23.50;1.00;;;;;;4974274;28;20460;-73
2023/08/15 07:20:38;;;;;;;0.80;0.47;;;23.50;1.00;;;;;;4974048;28;20473;-74
2023/08/15 07:23:07;;;;;;;0.80;0.50;;;23.50;1.00;;;;;;4974190;28;20450;-74
2023/08/15 07:25:41;;;;;;;0.60;0.20;;;23.50;99.90;;;;;;4973304;28;20559;-73
2023/08/15 07:28:11;;;;;;;0.60;0.10;;;23.50;99.90;;;;;;4973521;28;20480;-73
2023/08/15 07:30:39;;;;;;;0.60;0.10;;;23.50;99.90;;;;;;4973587;28;20560;-74
2023/08/15 07:33:07;;;;;;;0.60;0.17;;;23.50;99.90;;;;;;4973741;28;20541;-73
2023/08/15 07:35:35;;;;;;;0.60;0.10;;;23.60;99.90;;;;;;4973318;28;20442;-73
2023/08/15 07:38:03;;;;;;;1.13;1.03;;;23.60;99.90;;;;;;4973779;28;20449;-72
2023/08/15 07:40:31;;;;;;;0.60;0.10;;;23.70;99.90;;;;;;4973245;28;20449;-73
2023/08/15 07:42:59;;;;;;;0.60;0.10;;;23.70;99.90;;;;;;4970916;28;20547;-74
2023/08/15 07:45:28;;;;;;;0.60;0.20;;;23.70;99.90;;;;;;4954081;29;20482;-72
2023/08/15 07:47:58;;;;;;;0.60;0.10;;;23.80;99.90;;;;;;4951510;29;20895;-73
2023/08/15 07:50:29;;;;;;;0.60;0.20;;;23.90;99.90;;;;;;4944878;29;20518;-73
2023/08/15 07:52:58;;;;;;;0.60;0.10;;;23.90;99.90;;;;;;4954038;28;20537;-73
2023/08/15 07:55:30;;;;;;;0.60;0.20;;;23.80;99.90;;;;;;4952291;29;20462;-73
2023/08/15 07:58:00;;;;;;;0.60;0.20;;;23.90;99.90;;;;;;4953868;28;20442;-74
2023/08/15 08:00:29;;;;;;;0.60;0.20;;;23.90;99.90;;;;;;4952993;29;20982;-72
2023/08/15 08:02:59;;;;;;;0.60;0.10;;;24.00;99.90;;;;;;4951347;28;20619;-71
2023/08/15 08:05:28;;;;;;;0.60;0.10;;;;;;;;;;4942565;28;20470;-72
2023/08/15 08:08:00;;;;;;;0.60;0.20;;;24.20;99.90;;;;;;4952566;29;20978;-73
2023/08/15 08:10:28;;;;;;;0.70;0.20;;;24.30;99.90;;;;;;4951735;29;20452;-72
2023/08/15 08:12:58;;;;;;;0.60;0.10;;;24.30;99.90;;;;;;4946386;29;20442;-72
2023/08/15 08:15:26;;;;;;;0.60;0.20;;;24.30;99.90;;;;;;4953055;29;20505;-72
2023/08/15 08:17:55;;;;;;;0.60;0.20;;;24.40;99.90;;;;;;4953055;28;20509;-72
2023/08/15 08:20:25;;;;;;;0.60;0.20;;;;;;;;;;4952874;28;20454;-72
2023/08/15 08:22:53;;;;;;;0.60;0.10;;;24.50;99.90;;;;;;4952939;28;21091;-73
2023/08/15 08:25:23;;;;;;;0.60;0.10;;;24.50;99.90;;;;;;4952664;29;20887;-72
2023/08/15 08:27:51;;;;;;;0.60;0.10;;;24.50;99.90;;;;;;4950806;29;20490;-71
2023/08/15 08:30:21;;;;;;;0.60;0.10;;;24.60;99.90;;;;;;4949742;29;20577;-72
2023/08/15 08:32:50;;;;;;;0.70;0.10;;;24.70;99.90;;;;;;4942502;29;20476;-71
2023/08/15 08:35:20;;;;;;;0.60;0.10;;;24.80;99.90;;;;;;4949597;29;20554;-71
2023/08/15 08:37:48;;;;;;;0.70;0.10;;;24.90;99.90;;;;;;4952685;28;20541;-71
2023/08/15 08:40:17;;;;;;;0.67;0.17;;;24.90;99.90;;;;;;4949525;29;21112;-71
2023/08/15 08:42:45;;;;;;;0.70;0.10;;;25.00;99.90;;;;;;4952214;29;21053;-70
2023/08/15 08:45:13;;;;;;;0.70;0.17;;;25.10;99.90;;;;;;4952357;29;20826;-71
2023/08/15 08:47:44;;;;;;;0.70;0.10;;;25.10;99.90;;;;;;4952807;29;20453;-72
2023/08/15 08:50:13;;;;;;;0.70;0.13;;;;;;;;;;4952766;29;20446;-74
2023/08/15 08:52:48;;;;;;;0.60;0.10;;;25.10;99.90;;;;;;4952293;29;20792;-72
2023/08/15 08:55:16;;;;;;;0.67;0.10;;;25.10;99.90;;;;;;4952160;29;20509;-71
2023/08/15 08:57:49;;;;;;;0.70;0.10;;;25.20;99.90;;;;;;4952093;29;20493;-72
2023/08/15 09:00:19;;;;;;;0.70;0.10;;;25.20;99.90;;;;;;4949729;29;20446;-72
2023/08/15 09:02:47;;;;;;;0.60;0.10;;;25.30;99.90;;;;;;4951872;28;20490;-71
2023/08/15 09:05:16;;;;;;;0.70;0.10;;;25.30;99.90;;;;;;4952626;28;20493;-71
2023/08/15 09:07:46;;;;;;;0.70;0.10;;;25.40;99.90;;;;;;4952861;28;21031;-74
2023/08/15 09:10:13;;;;;;;0.80;0.50;;;25.40;99.90;;;;;;4948797;29;20550;-71
2023/08/15 09:12:42;;;;;;;0.73;0.43;;;25.40;99.90;;;;;;4951058;29;20438;-73
2023/08/15 09:15:11;;;;;;;0.67;0.10;;;25.30;99.90;;;;;;4951586;29;20466;-72
2023/08/15 09:17:39;;;;;;;0.70;0.10;;;25.50;99.90;;;;;;4953236;28;20446;-73
2023/08/15 09:20:13;;;;;;;0.63;0.10;;;25.50;99.90;;;;;;4948216;29;20545;-72
2023/08/15 09:22:44;;;;;;;0.70;0.20;;;25.60;99.90;;;;;;4952881;29;20843;-73
2023/08/15 09:25:14;;;;;;;0.70;0.20;;;25.70;99.90;;;;;;4952251;29;20552;-71
2023/08/15 09:27:44;;;;;;;0.70;0.10;;;25.70;99.90;;;;;;4954315;29;20474;-70
2023/08/15 09:30:13;;;;;;;1.03;0.67;;;;;;;;;;4954354;29;20446;-71
2023/08/15 09:32:42;;;;;;;3.27;2.17;;;25.70;99.90;;;;;;4954436;29;20442;-72
2023/08/15 09:35:12;;;;;;;0.80;0.40;;;25.80;99.90;;;;;;4953945;29;20442;-71
2023/08/15 09:37:44;;;;;;;0.70;0.10;;;25.90;99.90;;;;;;4951473;29;20458;-71
2023/08/15 09:40:15;;;;;;;0.70;0.10;;;26.00;99.90;;;;;;4948107;29;20541;-70
2023/08/15 09:42:44;;;;;;;0.70;0.10;;;26.00;99.90;;;;;;4952839;28;20518;-71
2023/08/15 09:45:13;;;;;;;0.97;0.80;;;26.10;99.90;;;;;;4960636;28;20446;-68
2023/08/15 09:47:41;;;;;;;0.70;0.10;;;26.20;99.90;;;;;;4954532;28;20545;-68
2023/08/15 09:50:11;;;;;;;0.70;0.10;;;26.20;99.90;;;;;;4950910;28;20455;-68
2023/08/15 09:52:40;;;;;;;3.43;3.30;;;26.30;99.90;;;;;;4964437;28;20500;-71
2023/08/15 09:55:09;;;;;;;0.70;0.20;;;26.40;99.90;;;;;;4958256;28;20477;-69
2023/08/15 09:57:40;;;;;;;0.70;0.10;;;26.40;99.90;;;;;;4968576;28;20451;-70
2023/08/15 10:00:11;;;;;;;1.43;0.67;;;26.40;99.90;;;;;;4959197;28;20510;-71
2023/08/15 10:03:10;;;;;;;0.70;0.10;;;26.40;99.90;;;;;;5141666;27;20871;-72
2023/08/15 10:05:42;;;;;;;1.77;0.87;;;26.50;99.90;;;;;;5127592;27;20445;-74
2023/08/15 10:08:11;;;;;;;0.80;0.47;;;26.60;99.90;;;;;;5129094;28;20523;-74
2023/08/15 10:10:40;;;;;;;0.70;0.20;;;26.60;99.90;;;;;;5123808;28;20811;-71
2023/08/15 10:13:09;;;;;;;0.70;0.43;;;26.60;99.90;;;;;;5105138;28;20435;-71
2023/08/15 10:15:38;;;;;;;0.70;0.43;;;26.80;99.90;;;;;;5108433;28;20939;-72
2023/08/15 10:18:08;;;;;;;0.70;0.10;;;26.90;99.90;;;;;;5108363;28;20877;-72
2023/08/15 10:20:40;;;;;;;0.80;0.30;;;27.00;99.90;;;;;;5108106;28;20996;-72
2023/08/15 10:23:09;;;;;;;0.70;0.17;;;27.00;99.90;;;;;;5105181;28;20459;-72
2023/08/15 10:25:39;;;;;;;0.70;0.10;;;26.90;99.90;;;;;;5105757;28;20472;-71
2023/08/15 10:28:12;;;;;;;1.07;0.57;;;27.00;99.90;;;;;;5104203;28;20458;-73
2023/08/15 10:30:42;;;;;;;0.70;0.17;;;26.90;99.90;;;;;;5103335;28;21108;-72
2023/08/15 10:33:22;;;;;;;0.80;0.50;;;26.90;99.90;;;;;;5102840;28;20448;-72
2023/08/15 10:35:53;;;;;;;0.90;0.50;;;26.80;99.90;;;;;;5106616;28;20448;-72
2023/08/15 10:38:23;;;;;;;0.70;0.17;;;26.80;99.90;;;;;;5102242;28;20547;-71
2023/08/15 10:40:53;;;;;;;0.90;0.43;;;26.90;99.90;;;;;;5099437;28;20524;-74
2023/08/15 10:43:27;;;;;;;0.70;0.17;;;26.90;99.90;;;;;;5106085;28;20506;-73
2023/08/15 10:45:58;;;;;;;1.93;1.03;;;27.00;99.90;;;;;;5110681;28;20482;-78
2023/08/15 10:48:43;;;;;;;1.63;0.57;;;26.90;99.90;;;;;;5106141;28;20961;-76
2023/08/15 10:51:30;;;;;;;1.27;0.87;;;27.00;99.90;;;;;;5106139;28;20520;-73
2023/08/15 10:54:00;;;;;;;0.70;0.20;;;27.00;99.90;;;;;;5107593;28;20445;-75
2023/08/15 10:56:29;;;;;;;1.20;0.40;;;27.00;99.90;;;;;;5104427;28;20985;-74
2023/08/15 10:58:58;;;;;;;0.70;0.20;;;27.00;99.90;;;;;;5106569;28;20490;-74
2023/08/15 11:01:28;;;;;;;0.70;0.27;;;26.90;99.90;;;;;;5108411;28;20485;-74
2023/08/15 11:03:58;;;;;;;1.17;0.90;;;26.80;99.90;;;;;;5108845;28;20448;-74
2023/08/15 11:06:26;;;;;;;0.80;0.47;;;26.80;99.90;;;;;;5106351;28;20445;-74
2023/08/15 11:08:56;;;;;;;0.70;0.20;;;26.80;99.90;;;;;;5107807;28;20956;-74
2023/08/15 11:11:27;;;;;;;1.10;0.60;;;26.60;99.90;;;;;;5107698;28;20492;-75
2023/08/15 11:13:55;;;;;;;0.80;0.37;;;26.60;99.90;;;;;;5096255;28;20958;-75
2023/08/15 11:16:24;;;;;;;1.10;0.80;;;26.30;99.90;;;;;;5092346;28;20449;-74
2023/08/15 11:18:52;;;;;;;0.80;0.50;;;26.20;99.90;;;;;;5087861;28;20491;-76
2023/08/15 11:21:21;;;;;;;0.70;0.23;;;29.70;99.90;;;;;;5093446;28;20550;-75
2023/08/15 11:23:54;;;;;;;3.13;1.07;;;26.10;99.90;;;;;;5094143;28;20504;-75
2023/08/15 11:26:25;;;;;;;0.70;0.17;;;26.10;99.90;;;;;;5085235;28;20460;-75
2023/08/15 11:28:54;;;;;;;1.30;1.03;;;;;;;;;;5094004;28;20978;-73
2023/08/15 11:31:23;;;;;;;1.10;0.50;;;25.30;99.90;;;;;;5090606;28;20487;-75
2023/08/15 11:33:52;;;;;;;1.17;1.07;;;24.90;99.90;;;;;;5090010;28;20464;-76
2023/08/15 11:36:22;;;;;;;1.23;1.03;;;24.70;99.90;;;;;;5087138;28;20835;-72
2023/08/15 11:38:50;;;;;;;0.70;0.30;;;24.50;99.90;;;;;;5083921;28;20502;-74
2023/08/15 11:41:18;;;;;;;0.70;0.20;;;;;;;;;;5089632;28;20535;-75
2023/08/15 11:43:46;;;;;;;0.80;0.37;;;24.50;99.90;;;;;;5092816;28;20779;-72
2023/08/15 11:46:14;;;;;;;0.70;0.10;;;;;;;;;;5092871;28;20441;-73
2023/08/15 11:48:45;;;;;;;1.20;0.40;;;24.60;99.90;;;;;;5091143;28;20444;-72
2023/08/15 11:51:21;;;;;;;0.70;0.30;;;24.40;99.90;;;;;;5093546;28;21065;-72
2023/08/15 11:53:50;;;;;;;6.30;0.73;;;24.40;99.90;;;;;;5093317;28;20432;-74
2023/08/15 11:56:18;;;;;;;1.50;0.77;;;24.00;99.90;;;;;;5093348;28;20527;-72
2023/08/15 11:58:47;;;;;;;0.60;0.20;;;;;;;;;;5093172;28;20464;-73
2023/08/15 12:01:15;;;;;;;1.97;0.73;;;23.60;99.90;;;;;;5092289;28;20491;-72
2023/08/15 12:03:43;;;;;;;1.50;0.63;;;23.50;99.90;;;;;;5094483;28;20571;-73
2023/08/15 12:06:13;;;;;;;1.80;1.70;;;23.50;99.90;;;;;;5094239;28;20489;-74
2023/08/15 12:08:45;;;;;;;1.00;0.83;;;23.60;99.90;;;;;;5093183;28;20813;-75
2023/08/15 12:11:19;;;;;;;0.60;0.20;;;23.50;99.90;;;;;;5092893;28;20505;-74
2023/08/15 12:13:48;;;;;;;1.27;0.93;;;23.60;99.90;;;;;;5093139;28;20506;-73
2023/08/15 12:16:19;;;;;;;2.50;1.03;;;;;;;;;;5094125;28;20459;-72
2023/08/15 12:18:47;;;;;;;3.27;2.03;;;;;;;;;;5088096;28;20797;-73
2023/08/15 12:21:15;;;;;;;1.60;0.73;;;;;;;;;;5093868;28;20456;-72
2023/08/15 12:23:45;;;;;;;0.70;0.47;;;23.50;99.90;;;;;;5092429;28;20848;-73
2023/08/15 12:26:13;;;;;;;0.80;0.57;;;;;;;;;;5091622;28;20528;-74
2023/08/15 12:28:41;;;;;;;1.23;1.07;;;;;;;;;;5092657;28;21148;-74
2023/08/15 12:31:09;;;;;;;1.03;0.50;;;;;;;;;;5092530;28;20460;-71
2023/08/15 12:33:38;;;;;;;0.90;0.70;;;;;;;;;;5092757;28;20459;-74
2023/08/15 12:36:14;;;;;;;2.50;2.37;;;23.60;99.90;;;;;;5092828;28;20440;-74
2023/08/15 12:38:43;;;;;;;0.60;0.10;;;23.60;99.90;;;;;;5089437;28;20522;-75
2023/08/15 12:41:13;;;;;;;0.60;0.10;;;24.00;99.90;;;;;;5088503;28;20542;-75
2023/08/15 12:43:41;;;;;;;1.03;0.40;;;24.20;99.90;;;;;;5089750;28;20480;-73
2023/08/15 12:46:10;;;;;;;0.60;0.10;;;24.30;99.90;;;;;;5091680;28;20528;-75
2023/08/15 12:48:39;;;;;;;0.60;0.30;;;24.30;99.90;;;;;;5092742;28;20527;-74
2023/08/15 12:51:07;;;;;;;0.70;0.30;;;24.40;99.90;;;;;;5092936;28;20456;-73
2023/08/15 12:53:35;;;;;;;0.80;0.40;;;24.40;99.90;;;;;;5092567;28;20447;-73
2023/08/15 12:56:02;;;;;;;0.60;0.10;;;24.50;99.90;;;;;;5093405;28;20470;-75
2023/08/15 12:58:32;;;;;;;0.60;0.20;;;24.50;99.90;;;;;;5092278;28;20440;-73
2023/08/15 13:01:00;;;;;;;0.67;0.20;;;;;;;;;;5093279;28;20475;-73
2023/08/15 13:03:30;;;;;;;0.67;0.10;;;24.60;99.90;;;;;;5092787;28;20476;-73
2023/08/15 13:05:58;;;;;;;0.70;0.20;;;;;;;;;;5092612;28;20460;-74
2023/08/15 13:08:27;;;;;;;0.70;0.10;;;;;;;;;;5092541;28;20498;-74
2023/08/15 13:10:56;;;;;;;0.70;0.20;;;24.70;99.90;;;;;;5092257;28;20460;-73
2023/08/15 13:13:24;;;;;;;0.87;0.60;;;24.70;99.90;;;;;;5092266;28;20443;-73
2023/08/15 13:15:53;;;;;;;0.70;0.20;;;24.60;99.90;;;;;;5091974;28;20440;-73
2023/08/15 13:18:21;;;;;;;0.60;0.20;;;24.60;99.90;;;;;;5092433;28;20531;-73
2023/08/15 13:20:49;;;;;;;0.70;0.20;;;24.60;99.90;;;;;;5091731;28;20475;-74
2023/08/15 13:23:17;;;;;;;0.80;0.40;;;24.50;99.90;;;;;;5092241;28;20515;-73
2023/08/15 13:25:45;;;;;;;1.23;1.13;;;;;;;;;;5091764;28;20471;-72
2023/08/15 13:28:13;;;;;;;0.60;0.10;;;;;;;;;;5092046;28;20451;-71
2023/08/15 13:30:42;;;;;;;1.60;1.43;;;;;;;;;;5091659;28;20806;-74
2023/08/15 13:33:11;;;;;;;1.20;1.10;;;23.90;99.90;;;;;;5091589;28;20444;-72
2023/08/15 13:35:39;;;;;;;0.60;0.10;;;23.90;99.90;;;;;;5091883;28;20448;-73
2023/08/15 13:38:07;;;;;;;0.70;0.30;;;;;;;;;;5091862;28;20448;-73
2023/08/15 13:40:36;;;;;;;0.97;0.50;;;;;;;;;;5091704;28;20464;-74
2023/08/15 13:43:04;;;;;;;0.60;0.10;;;;;;;;;;5091789;28;20559;-73
2023/08/15 13:45:32;;;;;;;0.60;0.10;;;23.80;99.90;;;;;;5091179;28;20867;-73
2023/08/15 13:48:00;;;;;;;0.60;0.10;;;;;;;;;;5091801;28;20532;-72
2023/08/15 13:50:29;;;;;;;0.60;0.20;;;23.90;99.90;;;;;;5091577;28;20593;-77
2023/08/15 13:52:58;;;;;;;0.60;0.20;;;;;;;;;;5091438;28;20924;-73
2023/08/15 13:55:27;;;;;;;1.57;1.47;;;23.90;99.90;;;;;;5091048;28;20580;-73
2023/08/15 13:57:55;;;;;;;0.60;0.10;;;23.90;99.90;;;;;;5091096;28;20551;-73
2023/08/15 14:00:22;;;;;;;0.60;0.10;;;23.90;99.90;;;;;;5091587;28;20448;-75
2023/08/15 14:02:50;;;;;;;0.70;0.37;;;23.90;99.90;;;;;;5091547;28;20506;-75
2023/08/15 14:05:18;;;;;;;0.60;0.10;;;23.70;99.90;;;;;;5091228;28;20440;-73
2023/08/15 14:07:47;;;;;;;0.60;0.10;;;23.90;99.90;;;;;;5092690;28;20943;-73
2023/08/15 14:10:16;;;;;;;0.60;0.10;;;;;;;;;;5098309;28;20444;-73
2023/08/15 14:12:44;;;;;;;0.60;0.10;;;24.10;99.90;;;;;;5099523;28;20455;-73
2023/08/15 14:15:12;;;;;;;0.60;0.10;;;24.20;99.90;;;;;;5099891;28;20539;-72
2023/08/15 14:17:40;;;;;;;0.60;0.10;;;24.20;99.90;;;;;;5094841;28;20482;-74
2023/08/15 14:20:08;;;;;;;0.60;0.20;;;24.30;99.90;;;;;;5092277;28;20436;-74
2023/08/15 14:22:36;;;;;;;0.60;0.10;;;24.20;99.90;;;;;;5091645;28;20555;-74
2023/08/15 14:25:07;;;;;;;0.60;0.20;;;24.30;99.90;;;;;;5091159;28;20501;-73
2023/08/15 14:27:35;;;;;;;0.60;0.10;;;24.30;99.90;;;;;;5091588;28;20547;-74
2023/08/15 14:30:02;;;;;;;0.60;0.20;;;24.40;99.90;;;;;;5091426;28;20444;-74
2023/08/15 14:32:30;;;;;;;0.60;0.10;;;24.50;99.90;;;;;;5091407;28;20518;-73
2023/08/15 14:34:59;;;;;;;0.60;0.10;;;24.50;99.90;;;;;;5091136;28;20445;-73
2023/08/15 14:37:27;;;;;;;0.60;0.10;;;24.50;99.90;;;;;;5091255;28;20459;-75
2023/08/15 14:39:56;;;;;;;0.70;0.10;;;;;;;;;;5091820;28;20956;-73
2023/08/15 14:42:25;;;;;;;1.50;0.60;;;24.50;99.90;;;;;;5091553;28;20486;-72
2023/08/15 14:44:53;;;;;;;0.67;0.30;;;24.40;99.90;;;;;;5090701;28;20904;-73
2023/08/15 14:47:29;;;;;;;0.60;0.10;;;24.30;99.90;;;;;;5091373;28;20448;-72
2023/08/15 14:49:57;;;;;;;1.17;1.07;;;24.20;99.90;;;;;;5095442;28;20440;-73
2023/08/15 14:52:26;;;;;;;0.60;0.10;;;24.30;99.90;;;;;;5094904;28;20470;-73
2023/08/15 14:54:55;;;;;;;0.60;0.10;;;24.30;99.90;;;;;;5095113;28;20440;-73
2023/08/15 14:57:22;;;;;;;0.70;0.60;;;24.30;99.90;;;;;;5094997;28;20444;-74
2023/08/15 14:59:53;;;;;;;0.60;0.30;;;24.60;99.90;;;;;;5094938;28;20447;-75
2023/08/15 15:02:20;;;;;;;1.87;1.17;;;24.70;99.90;;;;;;5094054;28;20496;-73
2023/08/15 15:04:52;;;;;;;3.93;3.73;;;;;;;;;;5094140;28;20532;-73
2023/08/15 15:07:20;;;;;;;1.80;0.47;;;24.60;99.90;;;;;;5094093;28;20451;-74
2023/08/15 15:09:49;;;;;;;1.10;0.87;;;24.70;99.90;;;;;;5094563;28;20447;-73
2023/08/15 15:12:16;;;;;;;1.43;0.30;;;24.70;99.90;;;;;;5094230;28;20907;-74
2023/08/15 15:14:45;;;;;;;2.50;1.37;;;;;;;;;;5094575;28;20440;-73
2023/08/15 15:17:14;;;;;;;1.80;1.43;;;24.40;99.90;;;;;;5094665;28;20512;-73
2023/08/15 15:19:41;;;;;;;0.60;0.20;;;24.50;99.90;;;;;;5095595;28;20899;-74
2023/08/15 15:22:09;;;;;;;0.60;0.10;;;24.60;99.90;;;;;;5094966;28;20657;-73
2023/08/15 15:24:37;;;;;;;0.60;0.10;;;24.60;99.90;;;;;;5094123;28;20522;-75
2023/08/15 15:27:05;;;;;;;0.60;0.10;;;24.90;99.90;;;;;;5094262;28;20544;-74
2023/08/15 15:29:33;;;;;;;0.60;0.10;;;25.00;99.90;;;;;;5095389;28;20444;-73
2023/08/15 15:32:01;;;;;;;0.70;0.10;;;;;;;;;;5094952;28;20500;-74
2023/08/15 15:34:31;;;;;;;0.60;0.10;;;25.00;99.90;;;;;;5095488;28;20440;-74
2023/08/15 15:36:59;;;;;;;0.70;0.10;;;;;;;;;;5095579;28;20440;-75
2023/08/15 15:39:28;;;;;;;2.97;1.07;;;;;;;;;;5095538;28;20444;-72
2023/08/15 15:41:56;;;;;;;0.70;0.20;;;25.00;99.90;;;;;;5095061;28;20861;-74
2023/08/15 15:44:24;;;;;;;2.07;1.40;;;25.00;99.90;;;;;;5094116;28;20539;-73
2023/08/15 15:46:52;;;;;;;0.70;0.20;;;24.80;99.90;;;;;;5094102;28;20873;-73
2023/08/15 15:49:22;;;;;;;1.13;0.77;;;24.70;99.90;;;;;;5092400;28;20440;-73
2023/08/15 15:51:51;;;;;;;0.70;0.47;;;24.70;99.90;;;;;;5092937;28;21044;-76
2023/08/15 15:54:20;;;;;;;0.67;0.33;;;;;;;;;;5092424;28;20436;-72
2023/08/15 15:56:48;;;;;;;0.60;0.13;;;;;;;;;;5093200;28;20582;-72
2023/08/15 15:59:16;;;;;;;0.60;0.10;;;25.00;99.90;;;;;;5092195;28;21208;-75
2023/08/15 16:01:44;;;;;;;1.40;0.80;;;24.60;99.90;;;;;;5093742;28;20559;-74
2023/08/15 16:04:12;;;;;;;0.63;0.17;;;;;;;;;;5093453;28;20467;-73
2023/08/15 16:06:40;;;;;;;0.70;0.20;;;24.50;99.90;;;;;;5093172;28;20448;-74
2023/08/15 16:09:10;;;;;;;0.60;0.20;;;24.20;99.90;;;;;;5093298;28;20478;-73
2023/08/15 16:11:38;;;;;;;1.43;0.70;;;24.10;99.90;;;;;;5092828;28;20974;-74
2023/08/15 16:14:06;;;;;;;0.60;0.10;;;;;;;;;;5096283;28;20530;-73
2023/08/15 16:16:34;;;;;;;0.60;0.20;;;24.20;99.90;;;;;;5093036;28;20447;-73
2023/08/15 16:19:02;;;;;;;0.60;0.10;;;;;;;;;;5093482;28;20444;-74
2023/08/15 16:21:30;;;;;;;0.60;0.10;;;24.50;99.90;;;;;;5094185;28;20474;-74
2023/08/15 16:23:57;;;;;;;0.60;0.10;;;24.50;99.90;;;;;;5096493;28;21051;-74
2023/08/15 16:26:27;;;;;;;1.53;1.33;;;24.60;99.90;;;;;;5096377;28;20450;-74
2023/08/15 16:28:55;;;;;;;0.80;0.20;;;;;;;;;;5094664;28;20526;-73
2023/08/15 16:31:23;;;;;;;1.00;0.23;;;24.60;99.90;;;;;;5093027;28;20461;-73
2023/08/15 16:33:51;;;;;;;0.80;0.37;;;;;;;;;;5092998;28;20440;-76
2023/08/15 16:36:19;;;;;;;1.30;1.17;;;;;;;;;;5092287;28;20446;-73
2023/08/15 16:38:47;;;;;;;1.83;1.73;;;;;;;;;;5092949;28;20448;-73
2023/08/15 16:41:15;;;;;;;0.60;0.20;;;24.30;99.90;;;;;;5092456;28;20991;-73
2023/08/15 16:43:44;;;;;;;0.80;0.60;;;24.20;99.90;;;;;;5093129;28;20933;-76
2023/08/15 16:46:12;;;;;;;0.70;0.30;;;24.30;99.90;;;;;;5092536;28;20549;-71
2023/08/15 16:48:40;;;;;;;0.60;0.30;;;24.30;99.90;;;;;;5092613;28;20440;-72
2023/08/15 16:51:07;;;;;;;0.70;0.30;;;24.20;99.90;;;;;;5092216;28;20961;-73
2023/08/15 16:53:35;;;;;;;0.60;0.10;;;24.20;99.90;;;;;;5092592;28;20444;-73
2023/08/15 16:56:04;;;;;;;0.70;0.20;;;;;;;;;;5092575;28;20440;-72
2023/08/15 16:58:32;;;;;;;0.60;0.13;;;;;;;;;;5092219;28;20933;-72
2023/08/15 17:01:01;;;;;;;0.67;0.30;;;;;;;;;;5091842;28;20558;-72
2023/08/15 17:03:30;;;;;;;0.60;0.10;;;;;;;;;;5091797;28;20535;-72
2023/08/15 17:05:58;;;;;;;0.60;0.10;;;;;;;;;;5091777;28;20487;-73
2023/08/15 17:08:26;;;;;;;0.60;0.20;;;24.10;99.90;;;;;;5091937;28;20440;-73
2023/08/15 17:10:54;;;;;;;0.60;0.30;;;24.20;99.90;;;;;;5091581;28;20838;-73
2023/08/15 17:13:22;;;;;;;1.07;0.97;;;;;;;;;;5092171;28;20804;-71
2023/08/15 17:15:50;;;;;;;0.70;0.33;;;24.30;99.90;;;;;;5091812;28;20579;-73